• Join FlightAware (Why Join?)
  • Login
  • US Flag 
11:50PM EDT


 

Airport Tracker/Info


-or-


 

Live Flight TrackerFlight Track Log ✈ AAL832 ✈ 25-Apr-2013 ✈ KORD - KMIA

Flight Track Log - Related Links

Times and Time Zones

All times are in EDT time to prevent confusion due to time zone crossing. See the AAL832 flight status page for this flight to view local times or setup timezone preferences in your user account.

Time Position Orientation Groundspeed Altitude Reporting Facility
EDT Latitude Longitude Course Direction KTS MPH feet Rate Location/Type
06:08PM 41.9458 -87.9031 180° South 166 191 37,000  Level Chicago Center
06:09PM 41.9017 -87.8822 161° South 196 226 3,800 -15,060 Descending Chicago Center
06:10PM 41.7500 -87.7712 166° South  Level Estimated
06:10PM 41.8200 -87.8558 166° South 242 278 5,900  Level Chicago Center
06:11PM 41.6236 -87.7678 179° South  Level FlightAware Approximate
06:11PM 41.7442 -87.8303 166° South 274 315 9,600  Level Chicago Center
06:12PM 41.5079 -87.7001 166° South  Level Estimated
06:12PM 41.6583 -87.8019 166° South 313 360 12,900  Level Chicago Center
06:13PM 41.3920 -87.6327 180° South  Level Estimated
06:13PM 41.5622 -87.7708 166° South 355 409 14,700  Level Chicago Center
06:14PM 41.4542 -87.7367 167° South 390 449 17,500 2,400 Climbing Chicago Center
06:15PM 41.3383 -87.7242 175° South 413 475 19,700 2,400 Climbing Chicago Center
06:16PM 41.1936 -87.7253 180° South 429 494 22,500 2,400 Climbing Chicago Center
06:17PM 41.0658 -87.7064 174° South 457 526 24,700 1,980 Climbing Chicago Center
06:18PM 40.9356 -87.6872 174° South 469 540 26,700 1,860 Climbing Chicago Center
06:19PM 40.8019 -87.6694 174° South 481 554 28,600 1,740 Climbing Chicago Center
06:20PM 40.6658 -87.6397 171° South 501 577 30,300 1,800 Climbing Chicago Center
06:21PM 40.5311 -87.5839 163° South 509 586 32,400 2,100 Climbing Chicago Center
06:22PM 40.3681 -87.5269 165° South 507 583 34,700 1,740 Climbing Chicago Center
06:24PM 40.2342 -87.4794 165° South 502 578 36,000 660 Climbing Chicago Center
06:24PM 40.1050 -87.4369 166° South 504 580 36,000  Level Indianapolis Center
06:25PM 39.9681 -87.3808 163° South 512 589 36,000  Level Indianapolis Center
06:26PM 39.8367 -87.2961 154° Southeast 522 601 36,000  Level Indianapolis Center
06:28PM 39.7069 -87.2075 152° Southeast 526 605 36,100 480 Climbing Indianapolis Center
06:29PM 39.5789 -87.1222 153° Southeast 519 597 37,000 420 Climbing Indianapolis Center
06:30PM 39.4508 -87.0383 153° Southeast 517 595 37,000  Level Indianapolis Center
06:31PM 39.3011 -86.9397 153° Southeast 516 594 37,000  Level Indianapolis Center
06:32PM 39.1736 -86.8561 153° Southeast 515 593 37,000  Level Indianapolis Center
06:33PM 39.0425 -86.7669 152° Southeast 519 597 37,000  Level Indianapolis Center
06:34PM 38.9128 -86.6792 152° Southeast 522 601 37,000  Level Indianapolis Center
06:35PM 38.7828 -86.5925 153° Southeast 520 598 37,000  Level Indianapolis Center
06:36PM 38.6528 -86.5042 152° Southeast 522 601 37,000  Level Indianapolis Center
06:37PM 38.5219 -86.4161 152° Southeast 523 602 37,000  Level Indianapolis Center
06:38PM 38.3931 -86.3294 152° Southeast 518 596 37,000  Level Indianapolis Center
06:39PM 38.2631 -86.2419 152° Southeast 522 601 37,000  Level Indianapolis Center
06:41PM 37.9833 -86.0578 153° Southeast 511 588 37,000  Level Indianapolis Center
06:42PM 37.8578 -85.9756 153° Southeast 505 581 37,000  Level Indianapolis Center
06:43PM 37.7322 -85.8958 153° Southeast 500 575 37,000  Level Indianapolis Center
06:44PM 37.6061 -85.8142 153° Southeast 505 581 37,000  Level Indianapolis Center
06:45PM 37.4800 -85.7331 153° Southeast 507 583 37,000  Level Indianapolis Center
06:46PM 37.3547 -85.6533 153° Southeast 502 578 37,000  Level Indianapolis Center
06:47PM 37.2189 -85.5933 161° South 486 559 37,000  Level Indianapolis Center
06:48PM 37.0861 -85.5517 166° South 485 558 37,000  Level Indianapolis Center
06:49PM 36.9367 -85.5019 165° South 487 560 37,000  Level Indianapolis Center
06:50PM 36.8056 -85.4569 165° South 488 562 37,000  Level Indianapolis Center
06:51PM 36.6725 -85.4128 165° South 493 567 37,000  Level Indianapolis Center
06:52PM 36.5389 -85.3675 165° South 497 572 37,000  Level Indianapolis Center
06:53PM 36.3781 -85.3139 165° South 499 574 37,000  Level Indianapolis Center
06:54PM 36.2442 -85.2703 165° South 499 574 37,000  Level Indianapolis Center
06:55PM 36.1108 -85.2264 165° South 497 572 37,000  Level Indianapolis Center
06:56PM 35.9783 -85.1836 165° South 497 572 37,000  Level Indianapolis Center
06:58PM 35.8244 -85.1328 165° South 505 581 37,000  Level Indianapolis Center
06:59PM 35.6783 -85.0869 166° South 501 577 37,000  Level Atlanta Center
07:00PM 35.5578 -85.0472 165° South 501 577 37,000  Level Atlanta Center
07:01PM 35.4225 -85.0047 166° South 501 577 37,000  Level Atlanta Center
07:02PM 35.2892 -84.9625 166° South 501 577 37,000  Level Atlanta Center
07:03PM 35.1561 -84.9178 165° South 501 577 37,000  Level Atlanta Center
07:04PM 35.0228 -84.8758 166° South 496 571 37,000  Level Atlanta Center
07:05PM 34.8894 -84.8314 165° South 491 565 37,000  Level Atlanta Center
07:06PM 34.7561 -84.7897 166° South 491 565 37,000  Level Atlanta Center
07:07PM 34.6106 -84.7378 164° South 491 565 37,000  Level Atlanta Center
07:08PM 34.4750 -84.6964 166° South 491 565 37,000  Level Atlanta Center
07:09PM 34.3417 -84.6553 166° South 491 565 37,000  Level Atlanta Center
07:10PM 34.2061 -84.6139 166° South 491 565 37,000  Level Atlanta Center
07:11PM 34.0853 -84.5731 164° South 491 565 37,000  Level Atlanta Center
07:12PM 33.9497 -84.5347 167° South 491 565 37,000  Level Atlanta Center
07:13PM 33.7975 -84.4911 167° South 491 565 37,000  Level Atlanta Center
07:14PM 33.6747 -84.4508 165° South 479 551 37,000  Level Atlanta Center
07:15PM 33.5433 -84.3978 161° South 485 558 37,000  Level Atlanta Center
07:16PM 33.4161 -84.3450 161° South 490 564 37,100 300 Climbing Atlanta Center
07:17PM 33.2889 -84.2897 160° South 490 564 37,600 840 Climbing Atlanta Center
07:18PM 33.1553 -84.2372 162° South 495 570 38,800 720 Climbing Atlanta Center
07:19PM 33.0386 -84.1900 161° South 495 570 39,100 120 Climbing Atlanta Center
07:20PM 32.9092 -84.1328 160° South 495 570 39,100  Level Atlanta Center
07:21PM 32.7778 -84.0808 162° South 500 575 39,100  Level Atlanta Center
07:22PM 32.6483 -84.0289 161° South 500 575 39,100  Level Atlanta Center
07:23PM 32.5189 -83.9747 161° South 500 575 39,100  Level Atlanta Center
07:24PM 32.3150 -83.8906 161° South 496 571 39,100  Level Jacksonville Center
07:25PM 32.1861 -83.8378 161° South 491 565 39,100  Level Jacksonville Center
07:26PM 32.0589 -83.7872 161° South 486 559 39,100  Level Jacksonville Center
07:27PM 31.9319 -83.7347 161° South 486 559 39,100 -60 Level Jacksonville Center
07:28PM 31.7903 -83.6747 160° South 486 559 39,000 -60 Descending Jacksonville Center
07:29PM 31.6633 -83.6247 161° South 486 559 39,000  Level Jacksonville Center
07:30PM 31.5278 -83.5725 162° South 500 575 39,100  Climbing Jacksonville Center
07:31PM 31.3986 -83.5231 162° South 500 575 39,100  Level Jacksonville Center
07:32PM 31.2694 -83.4711 161° South 500 575 39,100  Level Jacksonville Center
07:33PM 31.1403 -83.4192 161° South 495 570 39,100  Level Jacksonville Center
07:34PM 31.0111 -83.3678 161° South 495 570 39,100  Level Jacksonville Center
07:35PM 30.8817 -83.3186 162° South 495 570 39,100 -60 Level Jacksonville Center
07:36PM 30.7586 -83.2650 159° South 490 564 39,000 -60 Descending Jacksonville Center
07:37PM 30.6294 -83.1992 156° South 485 558 39,000  Level Jacksonville Center
07:38PM 30.5022 -83.1361 157° South 492 566 39,000  Level Jacksonville Center
07:39PM 30.3750 -83.0731 157° South 497 572 39,000  Level Jacksonville Center
07:40PM 30.2497 -83.0103 157° South 497 572 39,000  Level Jacksonville Center
07:41PM 30.1203 -82.9742 166° South 492 566 39,000  Level Jacksonville Center
07:42PM 29.9867 -82.9669 177° South 474 545 39,000  Level Jacksonville Center
07:43PM 29.8553 -82.9500 174° South 479 551 39,000  Level Jacksonville Center
07:44PM 29.7236 -82.9356 175° South 479 551 39,000  Level Jacksonville Center
07:45PM 29.5900 -82.9211 175° South 479 551 39,000  Level Jacksonville Center
07:46PM 29.4731 -82.9044 173° South 471 542 39,000  Level Jacksonville Center
07:47PM 29.3417 -82.8878 174° South 471 542 39,000  Level Jacksonville Center
07:48PM 29.2103 -82.8592 169° South 483 556 39,000  Level Jacksonville Center
07:49PM 29.0786 -82.8261 168° South 483 556 39,000  Level Jacksonville Center
07:50PM 28.9450 -82.7953 169° South 483 556 39,000  Level Jacksonville Center
07:51PM 28.8094 -82.7622 168° South 489 563 39,000  Level Jacksonville Center
07:52PM 28.6631 -82.7269 168° South 489 563 39,000  Level Jacksonville Center
07:53PM 28.5275 -82.6942 168° South 489 563 39,000  Level Jacksonville Center
07:54PM 28.4044 -82.6636 168° South 496 571 39,000  Level Jacksonville Center
07:55PM 28.2644 -82.6311 168° South 501 577 39,000  Level Jacksonville Center
07:57PM 27.9603 -82.5542 167° South 509 586 39,000  Level Miami Center
07:58PM 27.8239 -82.5217 168° South 509 586 39,000  Level Miami Center
07:59PM 27.6731 -82.4836 167° South 498 573 39,100 -60 Climbing Miami Center
08:00PM 27.5469 -82.4517 167° South 511 588 38,900 -900 Descending Miami Center
08:01PM 27.4228 -82.3756 151° Southeast 506 582 37,400 -1,680 Descending Miami Center
08:02PM 27.3039 -82.2647 140° Southeast 517 595 35,600 -1,500 Descending Miami Center
08:03PM 27.1969 -82.1639 140° Southeast 512 589 34,400 -1,500 Descending Miami Center
08:04PM 27.0919 -82.0683 141° Southeast 504 580 32,700 -1,860 Descending Miami Center
08:05PM 26.9969 -81.9825 141° Southeast 496 571 30,700 -2,220 Descending Miami Center
08:06PM 26.8936 -81.8872 141° Southeast 491 565 28,300 -2,700 Descending Miami Center
08:07PM 26.7864 -81.7894 141° Southeast 491 565 25,300 -2,880 Descending Miami Center
08:08PM 26.6831 -81.6944 141° Southeast 491 565 22,600 -2,400 Descending Miami Center
08:09PM 26.5903 -81.6025 138° Southeast 457 526 20,500 -1,560 Descending Miami Center
08:10PM 26.4989 -81.5200 141° Southeast 440 506 19,500 -1,140 Descending Miami Center
08:11PM 26.3975 -81.4256 140° Southeast 452 520 18,300 -1,320 Descending Miami Center
08:12PM 26.3019 -81.3383 141° Southeast 452 520 16,900 -1,800 Descending Miami Center
08:13PM 26.2106 -81.2539 140° Southeast 452 520 14,700 -2,400 Descending Miami Center
08:14PM 26.1211 -81.1719 141° Southeast 438 504 12,200 -2,700 Descending Miami Center
08:15PM 26.0722 -81.1333 145° Southeast 403 464 10,900 -2,220 Descending Miami Center
08:15PM 26.0336 -81.0950 138° Southeast 418 481 10,000 -840 Descending Miami Center
08:16PM 25.9825 -81.0561 146° Southeast 346 398 10,000 -120 Level Miami Center
08:16PM 25.9603 -81.0300 133° Southeast 381 438 9,900  Descending Miami Center
08:17PM 25.9214 -81.0008 146° Southeast 285 328 10,000 -120 Climbing Miami Center
08:17PM 25.9014 -80.9747 130° Southeast 325 374 9,800 -840 Descending Miami Center
08:18PM 25.8858 -80.9281 110° East 231 266 9,100 -1,140 Descending Miami Center
08:18PM 25.8889 -80.9006 83° East 246 283 8,700 -1,020 Descending Miami Center
08:19PM 25.8836 -80.8611 98° East 231 266 8,200 -1,140 Descending Miami Center
08:19PM 25.8867 -80.8289 84° East 233 268 7,600 -1,020 Descending Miami Center
08:20PM 25.8833 -80.7894 95° East 234 269 7,200 -900 Descending Miami Center
08:20PM 25.8886 -80.7528 81° East 228 262 6,700 -720 Descending Miami Center
08:21PM 25.8875 -80.7181 92° East 221 254 6,500 -600 Descending Miami Center
08:21PM 25.8925 -80.6881 79° East 216 249 6,100 -1,140 Descending Miami Center
08:22PM 25.8931 -80.6581 89° East 195 224 5,400 -1,200 Descending Miami Center
08:22PM 25.8939 -80.6258 88° East 205 236 4,900 -900 Descending Miami Center
08:23PM 25.8947 -80.5936 88° East 191 220 4,500 -720 Descending Miami Center
08:23PM 25.8975 -80.5706 82° East 193 222 4,200 -540 Descending Miami Center
08:24PM 25.8942 -80.5406 97° East 173 199 4,000 -300 Descending Miami Center
08:24PM 25.8989 -80.5175 77° East 176 203 3,900 -420 Descending Miami Center
08:25PM 25.8869 -80.4872 114° Southeast 179 206 3,600 -600 Descending Miami Center
08:26PM 25.8631 -80.4403 119° Southeast 173 199 3,000 -600 Descending Miami Center